Time;durP1;ratioP1;P1;durP2;ratioP2;P2;SDS_P1;SDS_P2;PMS_P1;PMS_P2;Temp;Humidity;BMP_temperature;BMP_pressure;BME280_temperature;BME280_humidity;BME280_pressure;Samples;Min_cycle;Max_cycle;Signal;HPM_P1;HPM_P2
2024/01/17 00:00:55;;;;;;;9.55;8.48;;;;;;;;;;10247181;28;20096;-59
2024/01/17 00:05:55;;;;;;;14.32;11.80;;;;;;;;;;10244982;28;20204;-59
2024/01/17 00:10:53;;;;;;;11.25;8.82;;;;;;;;;;10246283;28;20511;-60
2024/01/17 00:15:52;;;;;;;13.43;9.50;;;;;;;;;;10246666;28;20072;-60
2024/01/17 00:20:51;;;;;;;9.45;7.75;;;;;;;;;;10246038;28;20079;-58
2024/01/17 00:25:50;;;;;;;8.55;7.25;;;;;;;;;;10247390;28;20525;-59
2024/01/17 00:30:48;;;;;;;9.73;8.70;;;;;;;;;;10243837;28;20482;-60
2024/01/17 00:35:47;;;;;;;10.18;8.63;;;;;;;;;;10249461;28;20069;-59
2024/01/17 00:40:45;;;;;;;15.05;12.50;;;;;;;;;;10251202;28;20088;-60
2024/01/17 00:45:45;;;;;;;18.55;13.98;;;;;;;;;;10252360;28;20081;-60
2024/01/17 00:50:43;;;;;;;30.10;19.95;;;;;;;;;;10250826;28;20448;-61
2024/01/17 00:55:42;;;;;;;31.48;20.33;;;;;;;;;;10250053;28;20073;-61
2024/01/17 01:00:40;;;;;;;36.33;22.55;;;;;;;;;;10249903;28;20336;-58
2024/01/17 01:05:39;;;;;;;27.33;19.67;;;;;;;;;;10250305;28;20087;-59
2024/01/17 01:10:38;;;;;;;28.95;20.35;;;;;;;;;;10251132;28;20076;-59
2024/01/17 01:15:36;;;;;;;26.10;18.92;;;;;;;;;;10248644;28;20071;-60
2024/01/17 01:20:34;;;;;;;35.10;22.77;;;;;;;;;;10253237;28;20100;-60
2024/01/17 01:25:34;;;;;;;15.57;12.75;;;;;;;;;;10252364;28;20068;-60
2024/01/17 01:30:32;;;;;;;15.32;12.10;;;;;;;;;;10249710;28;20318;-59
2024/01/17 01:35:30;;;;;;;10.85;9.15;;;;;;;;;;10249364;28;20507;-58
2024/01/17 01:40:28;;;;;;;15.18;11.82;;;;;;;;;;10249710;28;20506;-59
2024/01/17 01:45:28;;;;;;;13.10;11.00;;;;;;;;;;10251620;28;20491;-60
2024/01/17 01:50:26;;;;;;;15.38;13.77;;;;;;;;;;10247086;28;20072;-60
2024/01/17 01:55:25;;;;;;;10.32;9.32;;;;;;;;;;10249180;28;20065;-60
2024/01/17 02:00:24;;;;;;;10.40;8.32;;;;;;;;;;10249525;28;20096;-61
2024/01/17 02:05:24;;;;;;;8.20;7.40;;;;;;;;;;10250215;28;20479;-59
2024/01/17 02:10:27;;;;;;;7.75;7.00;;;;;;;;;;10247265;28;20144;-61
2024/01/17 02:15:25;;;;;;;7.25;6.55;;;;;;;;;;10249347;28;20073;-58
2024/01/17 02:20:24;;;;;;;6.68;6.03;;;;;;;;;;10250849;28;20596;-57
2024/01/17 02:25:24;;;;;;;9.70;8.65;;;;;;;;;;10249880;28;20072;-60
2024/01/17 02:30:22;;;;;;;7.82;7.03;;;;;;;;;;10249771;28;20080;-60
2024/01/17 02:35:21;;;;;;;11.30;7.55;;;;;;;;;;10246274;28;20064;-58
2024/01/17 02:40:19;;;;;;;8.70;7.57;;;;;;;;;;10248886;28;20529;-60
2024/01/17 02:45:18;;;;;;;10.70;9.07;;;;;;;;;;10245671;28;20088;-58
2024/01/17 02:50:17;;;;;;;11.63;9.15;;;;;;;;;;10249220;28;20500;-59
2024/01/17 02:55:16;;;;;;;14.07;10.90;;;;;;;;;;10248068;28;20494;-60
2024/01/17 03:00:16;;;;;;;7.40;6.47;;;;;;;;;;10249326;28;20088;-59
2024/01/17 03:05:16;;;;;;;10.93;9.50;;;;;;;;;;10248077;28;20520;-60
2024/01/17 03:10:14;;;;;;;6.97;6.35;;;;;;;;;;10246965;28;20073;-59
2024/01/17 03:15:13;;;;;;;6.93;5.90;;;;;;;;;;10245546;28;20483;-59
2024/01/17 03:20:11;;;;;;;6.78;5.97;;;;;;;;;;10245752;28;20076;-60
2024/01/17 03:25:11;;;;;;;6.80;6.10;;;;;;;;;;10240976;28;20517;-59
2024/01/17 03:30:10;;;;;;;6.97;6.30;;;;;;;;;;10246151;28;20072;-58
2024/01/17 03:35:09;;;;;;;12.30;8.93;;;;;;;;;;10244522;28;20079;-59
2024/01/17 03:40:07;;;;;;;142.70;87.00;;;;;;;;;;10246242;28;20072;-60
2024/01/17 03:45:07;;;;;;;74.68;53.53;;;;;;;;;;10244774;28;20102;-60
2024/01/17 03:50:06;;;;;;;74.82;49.67;;;;;;;;;;10245963;28;20085;-60
2024/01/17 03:55:05;;;;;;;64.57;40.50;;;;;;;;;;10245319;28;20080;-61
2024/01/17 04:00:04;;;;;;;72.70;45.90;;;;;;;;;;10245577;28;20079;-60
2024/01/17 04:05:04;;;;;;;83.47;52.35;;;;;;;;;;10244374;28;20081;-60
2024/01/17 04:10:03;;;;;;;64.35;37.90;;;;;;;;;;10249995;28;20068;-60
2024/01/17 04:15:01;;;;;;;68.18;39.75;;;;;;;;;;10254336;28;20065;-59
2024/01/17 04:20:00;;;;;;;36.97;24.52;;;;;;;;;;10256992;28;20088;-60
2024/01/17 04:24:59;;;;;;;65.72;39.00;;;;;;;;;;10253248;28;20065;-58
2024/01/17 04:29:57;;;;;;;47.05;27.50;;;;;;;;;;10249968;28;20076;-57
2024/01/17 04:34:56;;;;;;;43.40;26.73;;;;;;;;;;10251243;28;20095;-59
2024/01/17 04:39:54;;;;;;;31.10;19.00;;;;;;;;;;10254072;28;20510;-59
2024/01/17 04:44:53;;;;;;;116.35;58.40;;;;;;;;;;10251932;28;20085;-59
2024/01/17 04:49:52;;;;;;;52.08;28.67;;;;;;;;;;10253283;28;20081;-60
2024/01/17 04:54:50;;;;;;;51.78;30.98;;;;;;;;;;10253151;28;20506;-59
2024/01/17 04:59:48;;;;;;;47.55;26.02;;;;;;;;;;10250888;28;20079;-60
2024/01/17 05:04:48;;;;;;;11.32;9.40;;;;;;;;;;10253636;28;20077;-58
2024/01/17 05:09:46;;;;;;;29.27;19.70;;;;;;;;;;10234053;28;20052;-60
2024/01/17 05:14:44;;;;;;;56.17;33.03;;;;;;;;;;10250500;28;20068;-60
2024/01/17 05:19:43;;;;;;;68.55;40.15;;;;;;;;;;10247310;28;20076;-60
2024/01/17 05:24:43;;;;;;;22.73;15.88;;;;;;;;;;10245551;28;20084;-60
2024/01/17 05:29:44;;;;;;;14.27;11.25;;;;;;;;;;10247960;28;20073;-57
2024/01/17 05:34:45;;;;;;;20.58;15.75;;;;;;;;;;10249330;28;20077;-60
2024/01/17 05:39:45;;;;;;;22.63;17.90;;;;;;;;;;10243794;28;20080;-59
2024/01/17 05:44:43;;;;;;;41.78;27.58;;;;;;;;;;10246266;28;20088;-59
2024/01/17 05:49:41;;;;;;;62.40;36.85;;;;;;;;;;10245694;28;20084;-59
2024/01/17 05:54:40;;;;;;;49.92;36.47;;;;;;;;;;10242119;28;20076;-58
2024/01/17 05:59:40;;;;;;;49.47;34.05;;;;;;;;;;10246135;28;20497;-59
2024/01/17 06:04:38;;;;;;;49.80;33.90;;;;;;;;;;10246135;28;20076;-60
2024/01/17 06:09:36;;;;;;;73.85;43.13;;;;;;;;;;10250927;28;20663;-61
2024/01/17 06:14:34;;;;;;;42.78;28.10;;;;;;;;;;10256235;28;20068;-60
2024/01/17 06:19:34;;;;;;;34.83;23.63;;;;;;;;;;10243437;28;20683;-60
2024/01/17 06:24:32;;;;;;;30.70;20.20;;;;;;;;;;10244466;28;20068;-60
2024/01/17 06:29:31;;;;;;;34.88;24.23;;;;;;;;;;10248634;28;20809;-60
2024/01/17 06:34:29;;;;;;;35.75;21.42;;;;;;;;;;10246517;28;20073;-61
2024/01/17 06:39:29;;;;;;;36.75;26.08;;;;;;;;;;10246638;28;20076;-60
2024/01/17 06:44:29;;;;;;;35.38;24.60;;;;;;;;;;10242700;28;20064;-60
2024/01/17 06:49:27;;;;;;;27.70;20.83;;;;;;;;;;10241492;28;20510;-58
2024/01/17 06:54:26;;;;;;;28.23;18.02;;;;;;;;;;10242225;28;20069;-59
2024/01/17 06:59:26;;;;;;;39.75;28.08;;;;;;;;;;10239991;28;20084;-60
2024/01/17 07:04:24;;;;;;;124.13;74.63;;;;;;;;;;10237062;28;20080;-60
2024/01/17 07:09:22;;;;;;;85.65;52.72;;;;;;;;;;10241984;28;20471;-59
2024/01/17 07:14:21;;;;;;;63.10;43.60;;;;;;;;;;10235618;28;20088;-59
2024/01/17 07:19:20;;;;;;;46.50;32.53;;;;;;;;;;10236253;28;20084;-60
2024/01/17 07:24:18;;;;;;;45.63;34.50;;;;;;;;;;10233658;28;20072;-59
2024/01/17 07:29:17;;;;;;;52.33;32.40;;;;;;;;;;10239771;28;20067;-58
2024/01/17 07:34:15;;;;;;;33.80;21.83;;;;;;;;;;10239287;28;20487;-58
2024/01/17 07:39:18;;;;;;;61.58;36.22;;;;;;;;;;10238236;28;20068;-58
2024/01/17 07:44:16;;;;;;;10.68;8.65;;;;;;;;;;10245361;28;20077;-58
2024/01/17 07:49:14;;;;;;;12.23;8.18;;;;;;;;;;10256619;28;20060;-58
2024/01/17 07:54:16;;;;;;;18.08;11.98;;;;;;;;;;10258922;28;20068;-58
2024/01/17 07:59:14;;;;;;;31.00;20.98;;;;;;;;;;10257739;28;20072;-58
2024/01/17 08:04:12;;;;;;;94.55;59.42;;;;;;;;;;10258189;28;20061;-58
2024/01/17 08:09:20;;;;;;;39.08;25.88;;;;;;;;;;10258900;28;20092;-58
2024/01/17 08:14:20;;;;;;;49.55;31.10;;;;;;;;;;10257956;28;20081;-59
2024/01/17 08:19:19;;;;;;;55.15;38.97;;;;;;;;;;10261947;28;20064;-57
2024/01/17 08:24:18;;;;;;;46.83;33.10;;;;;;;;;;10260279;28;20049;-58
2024/01/17 08:29:17;;;;;;;50.20;35.53;;;;;;;;;;10259031;28;20081;-59
2024/01/17 08:34:20;;;;;;;61.30;40.58;;;;;;;;;;10254724;28;20060;-59
2024/01/17 08:39:20;;;;;;;78.97;46.85;;;;;;;;;;10254425;28;20069;-59
2024/01/17 08:44:18;;;;;;;57.55;37.13;;;;;;;;;;10260167;28;20085;-58
2024/01/17 08:49:20;;;;;;;44.63;31.40;;;;;;;;;;10259308;28;20061;-59
2024/01/17 08:54:18;;;;;;;41.78;26.92;;;;;;;;;;10254943;28;20064;-59
2024/01/17 08:59:16;;;;;;;31.50;20.48;;;;;;;;;;10252134;28;20068;-59
2024/01/17 09:04:15;;;;;;;37.03;18.65;;;;;;;;;;10249951;28;20116;-59
2024/01/17 09:09:14;;;;;;;21.50;13.48;;;;;;;;;;10248220;28;20069;-60
2024/01/17 09:14:13;;;;;;;29.67;17.33;;;;;;;;;;10249112;28;20085;-59
2024/01/17 09:19:11;;;;;;;23.35;17.52;;;;;;;;;;10253202;28;20088;-60
2024/01/17 09:24:09;;;;;;;31.40;18.70;;;;;;;;;;10250324;28;20513;-60
2024/01/17 09:29:09;;;;;;;22.77;15.13;;;;;;;;;;10251331;28;20073;-60
2024/01/17 09:34:07;;;;;;;15.20;10.90;;;;;;;;;;10249297;28;20513;-59
2024/01/17 09:39:06;;;;;;;15.38;12.02;;;;;;;;;;10235200;28;20060;-58
2024/01/17 09:44:04;;;;;;;12.95;11.10;;;;;;;;;;10249800;28;20080;-60
2024/01/17 09:49:04;;;;;;;14.20;9.88;;;;;;;;;;10250784;28;20495;-59
2024/01/17 09:54:04;;;;;;;18.35;11.13;;;;;;;;;;10253176;28;20084;-59
2024/01/17 09:59:08;;;;;;;18.08;11.30;;;;;;;;;;10250821;28;20079;-59
2024/01/17 10:04:09;;;;;;;17.08;12.50;;;;;;;;;;10251036;28;20090;-59
2024/01/17 10:09:07;;;;;;;23.55;13.88;;;;;;;;;;10247873;28;20103;-60
2024/01/17 10:14:06;;;;;;;17.65;12.93;;;;;;;;;;10250153;28;20077;-60
2024/01/17 10:19:05;;;;;;;19.15;12.75;;;;;;;;;;10249024;28;20077;-60
2024/01/17 10:24:06;;;;;;;24.73;16.30;;;;;;;;;;10248249;28;20084;-60
2024/01/17 10:29:04;;;;;;;29.48;22.90;;;;;;;;;;10251161;28;20204;-59
2024/01/17 10:34:02;;;;;;;30.73;20.27;;;;;;;;;;10249010;28;20468;-59
2024/01/17 10:39:04;;;;;;;35.80;18.85;;;;;;;;;;10248758;28;20474;-59
2024/01/17 10:44:05;;;;;;;26.00;16.30;;;;;;;;;;10249288;28;20526;-59
2024/01/17 10:49:03;;;;;;;39.72;27.15;;;;;;;;;;10247678;28;20538;-60
2024/01/17 10:54:03;;;;;;;21.05;16.20;;;;;;;;;;10250218;28;20075;-59
2024/01/17 10:59:02;;;;;;;18.80;14.52;;;;;;;;;;10246224;28;20099;-61
2024/01/17 11:04:04;;;;;;;38.95;25.88;;;;;;;;;;10246161;28;20078;-58
2024/01/17 11:09:04;;;;;;;64.97;34.75;;;;;;;;;;10244998;28;20458;-58
2024/01/17 11:14:03;;;;;;;25.05;20.13;;;;;;;;;;10247605;28;20073;-62
2024/01/17 11:19:04;;;;;;;24.70;16.95;;;;;;;;;;10245049;28;20073;-60
2024/01/17 11:24:08;;;;;;;21.27;15.70;;;;;;;;;;10245045;28;20084;-57
2024/01/17 11:29:12;;;;;;;20.02;16.48;;;;;;;;;;10244898;28;20545;-59
2024/01/17 11:34:12;;;;;;;18.25;13.02;;;;;;;;;;10246299;28;20076;-59
2024/01/17 11:39:11;;;;;;;28.45;18.35;;;;;;;;;;10245393;28;20087;-59
2024/01/17 11:44:10;;;;;;;28.67;19.75;;;;;;;;;;10248705;28;20084;-59
2024/01/17 11:49:10;;;;;;;18.45;13.43;;;;;;;;;;10244523;28;20333;-59
2024/01/17 11:54:12;;;;;;;18.95;13.23;;;;;;;;;;10247311;28;20521;-59
2024/01/17 11:59:12;;;;;;;23.25;18.60;;;;;;;;;;10247706;28;20069;-58
2024/01/17 12:04:15;;;;;;;13.48;11.90;;;;;;;;;;10245302;28;20077;-59
2024/01/17 12:09:18;;;;;;;17.55;12.80;;;;;;;;;;10246587;28;20080;-57
2024/01/17 12:14:21;;;;;;;20.50;15.07;;;;;;;;;;10245778;28;20167;-58
2024/01/17 12:19:19;;;;;;;22.48;17.13;;;;;;;;;;10244854;28;20072;-59
2024/01/17 12:24:20;;;;;;;21.63;16.67;;;;;;;;;;10244187;28;20077;-58
2024/01/17 12:29:37;;;;;;;21.35;18.02;;;;;;;;;;10244234;28;20077;-58
2024/01/17 12:34:35;;;;;;;25.30;18.10;;;;;;;;;;10253751;28;20080;-58
2024/01/17 12:39:36;;;;;;;13.02;10.77;;;;;;;;;;10252771;28;20077;-59
2024/01/17 12:44:35;;;;;;;32.40;19.48;;;;;;;;;;10252336;28;20533;-59
2024/01/17 12:49:33;;;;;;;25.38;18.83;;;;;;;;;;10252037;28;20069;-59
2024/01/17 12:54:32;;;;;;;29.42;21.67;;;;;;;;;;10249948;28;20069;-58
2024/01/17 12:59:32;;;;;;;47.05;28.90;;;;;;;;;;10248941;28;20073;-58
2024/01/17 13:04:30;;;;;;;56.90;38.53;;;;;;;;;;10248561;28;20079;-59
2024/01/17 13:09:31;;;;;;;23.83;17.02;;;;;;;;;;10250720;28;20076;-57
2024/01/17 13:14:29;;;;;;;18.45;13.63;;;;;;;;;;10251769;28;20069;-59
2024/01/17 13:19:29;;;;;;;29.88;18.30;;;;;;;;;;10252051;28;20506;-59
2024/01/17 13:24:28;;;;;;;24.50;19.67;;;;;;;;;;10252095;28;20482;-57
2024/01/17 13:29:26;;;;;;;47.53;30.33;;;;;;;;;;10234793;28;20123;-59
2024/01/17 13:34:25;;;;;;;19.75;13.68;;;;;;;;;;10251310;28;20069;-59
2024/01/17 13:39:28;;;;;;;13.38;9.68;;;;;;;;;;10250504;28;20065;-59
2024/01/17 13:44:26;;;;;;;11.43;9.55;;;;;;;;;;10250248;28;20514;-59
2024/01/17 13:49:25;;;;;;;13.20;9.85;;;;;;;;;;10250010;28;20060;-59
2024/01/17 13:54:25;;;;;;;17.15;13.38;;;;;;;;;;10249256;28;20072;-60
2024/01/17 13:59:23;;;;;;;12.25;9.55;;;;;;;;;;10248404;28;20554;-59
2024/01/17 14:04:22;;;;;;;26.13;16.50;;;;;;;;;;10249141;28;20460;-59
2024/01/17 14:09:23;;;;;;;14.23;11.35;;;;;;;;;;10248020;28;20076;-58
2024/01/17 14:14:25;;;;;;;19.02;13.70;;;;;;;;;;10235236;28;20080;-60
2024/01/17 14:19:23;;;;;;;29.65;22.05;;;;;;;;;;10248556;28;20060;-60
2024/01/17 14:24:21;;;;;;;18.50;14.02;;;;;;;;;;10251078;28;20075;-60
2024/01/17 14:29:19;;;;;;;20.35;12.07;;;;;;;;;;10248968;28;20463;-60
2024/01/17 14:34:21;;;;;;;19.33;13.27;;;;;;;;;;10250031;28;20080;-58
2024/01/17 14:39:22;;;;;;;31.83;22.40;;;;;;;;;;10245107;28;20066;-59
2024/01/17 14:44:21;;;;;;;61.67;44.55;;;;;;;;;;10244591;28;20076;-59
2024/01/17 14:49:20;;;;;;;20.00;14.43;;;;;;;;;;10243267;28;20069;-59
2024/01/17 14:54:19;;;;;;;45.60;29.88;;;;;;;;;;10239875;28;20061;-62
2024/01/17 14:59:17;;;;;;;120.90;69.93;;;;;;;;;;10240991;28;20470;-64
2024/01/17 15:04:16;;;;;;;101.22;60.88;;;;;;;;;;10238885;28;20092;-62
2024/01/17 15:09:16;;;;;;;30.33;20.40;;;;;;;;;;10226210;28;20087;-61
2024/01/17 15:14:15;;;;;;;17.73;14.48;;;;;;;;;;10229855;28;20100;-61
2024/01/17 15:19:13;;;;;;;19.77;16.77;;;;;;;;;;10233287;28;20087;-61
2024/01/17 15:24:12;;;;;;;23.73;15.25;;;;;;;;;;10238760;28;20072;-61
2024/01/17 15:29:12;;;;;;;22.90;15.95;;;;;;;;;;10235159;28;20073;-61
2024/01/17 15:34:10;;;;;;;18.48;13.38;;;;;;;;;;10239653;28;20545;-61
2024/01/17 15:39:10;;;;;;;23.80;18.45;;;;;;;;;;10240449;28;20073;-61
2024/01/17 15:44:09;;;;;;;43.72;31.42;;;;;;;;;;10232046;28;20081;-61
2024/01/17 15:49:09;;;;;;;26.67;19.55;;;;;;;;;;10239782;28;20088;-62
2024/01/17 15:54:07;;;;;;;31.73;21.70;;;;;;;;;;10240518;28;20069;-60
2024/01/17 15:59:06;;;;;;;51.22;35.85;;;;;;;;;;10223912;28;20073;-61
2024/01/17 16:04:04;;;;;;;53.28;32.88;;;;;;;;;;10235528;28;20077;-60
2024/01/17 16:09:04;;;;;;;44.15;26.83;;;;;;;;;;10242710;28;20073;-60
2024/01/17 16:14:05;;;;;;;85.47;57.97;;;;;;;;;;10242917;28;20112;-61
2024/01/17 16:19:03;;;;;;;94.05;56.53;;;;;;;;;;10241804;28;20141;-62
2024/01/17 16:24:02;;;;;;;75.47;42.45;;;;;;;;;;10239985;28;20100;-58
2024/01/17 16:29:03;;;;;;;60.28;39.25;;;;;;;;;;10229067;28;20570;-59
2024/01/17 16:34:01;;;;;;;59.97;38.30;;;;;;;;;;10237789;28;20072;-59
2024/01/17 16:39:00;;;;;;;38.28;27.00;;;;;;;;;;10239623;28;20061;-59
2024/01/17 16:43:58;;;;;;;42.85;31.67;;;;;;;;;;10242536;28;20080;-59
2024/01/17 16:48:58;;;;;;;50.63;35.38;;;;;;;;;;10231120;28;20513;-56
2024/01/17 16:53:57;;;;;;;50.67;33.95;;;;;;;;;;10242983;28;20069;-58
2024/01/17 16:58:55;;;;;;;48.78;33.47;;;;;;;;;;10230519;28;20076;-58
2024/01/17 17:03:53;;;;;;;70.85;50.13;;;;;;;;;;10242511;28;20085;-58
2024/01/17 17:08:53;;;;;;;42.25;29.15;;;;;;;;;;10236077;28;20470;-57
2024/01/17 17:13:51;;;;;;;45.92;28.55;;;;;;;;;;10231447;28;20076;-57
2024/01/17 17:18:50;;;;;;;44.67;27.23;;;;;;;;;;10234558;28;20088;-57
2024/01/17 17:23:49;;;;;;;52.28;33.42;;;;;;;;;;10235500;28;20563;-59
2024/01/17 17:28:48;;;;;;;32.60;23.25;;;;;;;;;;10240043;28;20068;-57
2024/01/17 17:33:47;;;;;;;30.80;23.33;;;;;;;;;;10238633;28;20073;-56
2024/01/17 17:38:45;;;;;;;31.95;22.40;;;;;;;;;;10233547;28;20072;-57
2024/01/17 17:43:43;;;;;;;31.08;22.13;;;;;;;;;;10235220;28;20088;-59
2024/01/17 17:48:43;;;;;;;28.88;20.50;;;;;;;;;;10229419;28;20065;-57
2024/01/17 17:53:46;;;;;;;28.45;17.83;;;;;;;;;;10239650;28;20061;-56
2024/01/17 17:58:45;;;;;;;32.35;22.15;;;;;;;;;;10242448;28;20065;-57
2024/01/17 18:03:44;;;;;;;29.55;21.58;;;;;;;;;;10243975;28;20084;-57
2024/01/17 18:08:42;;;;;;;31.60;21.70;;;;;;;;;;10242577;28;20072;-57
2024/01/17 18:13:45;;;;;;;27.02;20.88;;;;;;;;;;10241344;28;20084;-58
2024/01/17 18:18:45;;;;;;;45.42;30.98;;;;;;;;;;10235480;28;20065;-58
2024/01/17 18:23:46;;;;;;;22.20;19.00;;;;;;;;;;10238451;28;20083;-56
2024/01/17 18:28:45;;;;;;;21.55;15.95;;;;;;;;;;10239763;28;20084;-56
2024/01/17 18:33:43;;;;;;;27.33;18.15;;;;;;;;;;10239222;28;20080;-56
2024/01/17 18:38:43;;;;;;;25.40;18.88;;;;;;;;;;10236893;28;20080;-56
2024/01/17 18:43:41;;;;;;;21.10;16.55;;;;;;;;;;10239965;28;20065;-56
2024/01/17 18:48:40;;;;;;;31.48;25.90;;;;;;;;;;10233514;28;20071;-58
2024/01/17 18:53:40;;;;;;;41.33;29.85;;;;;;;;;;10236437;28;20504;-56
2024/01/17 18:58:40;;;;;;;33.10;24.85;;;;;;;;;;10238928;28;20069;-52
2024/01/17 19:03:38;;;;;;;30.58;24.77;;;;;;;;;;10242004;28;20068;-57
2024/01/17 19:08:36;;;;;;;32.83;27.10;;;;;;;;;;10239807;28;20083;-58
2024/01/17 19:13:35;;;;;;;41.72;29.80;;;;;;;;;;10229724;28;20464;-54
2024/01/17 19:18:34;;;;;;;45.88;35.47;;;;;;;;;;10241007;28;20069;-57
2024/01/17 19:23:33;;;;;;;68.85;45.55;;;;;;;;;;10237718;28;20073;-57
2024/01/17 19:28:31;;;;;;;58.33;42.25;;;;;;;;;;10237132;28;20080;-57
2024/01/17 19:33:29;;;;;;;65.03;44.65;;;;;;;;;;10230436;28;20088;-58
2024/01/17 19:38:30;;;;;;;51.92;36.58;;;;;;;;;;10224368;28;20072;-57
2024/01/17 19:43:28;;;;;;;30.33;23.15;;;;;;;;;;10217604;28;20096;-55
2024/01/17 19:48:26;;;;;;;48.75;34.90;;;;;;;;;;10217782;28;20092;-57
2024/01/17 19:53:25;;;;;;;85.45;57.97;;;;;;;;;;10216732;28;20068;-56
2024/01/17 19:58:25;;;;;;;92.00;56.50;;;;;;;;;;10229637;28;20065;-54
2024/01/17 20:03:24;;;;;;;76.70;50.55;;;;;;;;;;10235678;28;20085;-57
2024/01/17 20:08:22;;;;;;;51.42;36.08;;;;;;;;;;10230903;28;20065;-58
2024/01/17 20:13:20;;;;;;;26.90;19.80;;;;;;;;;;10228652;28;20081;-58
2024/01/17 20:18:23;;;;;;;19.17;14.65;;;;;;;;;;10226041;28;20069;-57
2024/01/17 20:23:21;;;;;;;140.45;92.47;;;;;;;;;;10224912;28;20607;-57
2024/01/17 20:28:20;;;;;;;114.53;76.63;;;;;;;;;;10222529;28;20510;-57
2024/01/17 20:33:18;;;;;;;98.90;59.58;;;;;;;;;;10227265;28;20077;-57
2024/01/17 20:38:18;;;;;;;90.13;57.10;;;;;;;;;;10231002;28;20072;-57
2024/01/17 20:43:18;;;;;;;108.55;65.97;;;;;;;;;;10229161;28;20097;-55
2024/01/17 20:48:16;;;;;;;111.75;70.43;;;;;;;;;;10228574;28;20084;-53
2024/01/17 20:53:14;;;;;;;201.77;118.50;;;;;;;;;;10237053;28;20061;-56
2024/01/17 20:58:14;;;;;;;145.15;82.28;;;;;;;;;;10237337;28;20073;-53
2024/01/17 21:03:12;;;;;;;85.97;51.47;;;;;;;;;;10223316;28;20081;-57
2024/01/17 21:08:11;;;;;;;63.85;43.88;;;;;;;;;;10242015;28;20080;-58
2024/01/17 21:13:09;;;;;;;57.85;40.67;;;;;;;;;;10233416;28;20111;-59
2024/01/17 21:18:09;;;;;;;56.70;40.75;;;;;;;;;;10242553;28;20069;-58
2024/01/17 21:23:08;;;;;;;62.05;40.63;;;;;;;;;;10217575;28;20080;-57
2024/01/17 21:28:07;;;;;;;73.45;47.30;;;;;;;;;;10222344;28;20077;-58
2024/01/17 21:33:05;;;;;;;67.35;42.28;;;;;;;;;;10233260;28;20522;-56
2024/01/17 21:38:06;;;;;;;67.63;44.40;;;;;;;;;;10239431;28;20060;-57
2024/01/17 21:43:04;;;;;;;61.40;41.58;;;;;;;;;;10237611;28;20069;-56
2024/01/17 21:48:03;;;;;;;48.67;33.70;;;;;;;;;;10230061;28;20081;-61
2024/01/17 21:53:01;;;;;;;48.22;31.98;;;;;;;;;;10220622;28;20080;-60
2024/01/17 21:58:01;;;;;;;41.50;27.77;;;;;;;;;;10236919;28;20069;-62
2024/01/17 22:02:59;;;;;;;46.85;30.25;;;;;;;;;;10237621;28;20076;-61
2024/01/17 22:07:57;;;;;;;34.95;26.23;;;;;;;;;;10235596;28;20081;-60
2024/01/17 22:12:56;;;;;;;36.38;27.75;;;;;;;;;;10230466;28;20065;-60
2024/01/17 22:17:56;;;;;;;32.30;23.35;;;;;;;;;;10234625;28;20077;-62
2024/01/17 22:22:54;;;;;;;29.60;20.58;;;;;;;;;;10237146;28;20077;-61
2024/01/17 22:27:53;;;;;;;40.55;26.00;;;;;;;;;;10239217;28;20092;-61
2024/01/17 22:32:51;;;;;;;29.40;21.25;;;;;;;;;;10230671;28;20073;-60
2024/01/17 22:37:52;;;;;;;24.70;19.52;;;;;;;;;;10235528;28;20065;-60
2024/01/17 22:42:51;;;;;;;39.22;25.33;;;;;;;;;;10233342;28;20072;-60
2024/01/17 22:47:49;;;;;;;33.78;24.38;;;;;;;;;;10236393;28;20095;-61
2024/01/17 22:52:47;;;;;;;44.53;29.15;;;;;;;;;;10229445;28;20569;-61
2024/01/17 22:57:50;;;;;;;26.17;21.02;;;;;;;;;;10239980;28;20073;-60
2024/01/17 23:02:49;;;;;;;31.38;20.73;;;;;;;;;;10239831;28;20065;-60
2024/01/17 23:07:48;;;;;;;65.22;40.28;;;;;;;;;;10237684;28;20085;-61
2024/01/17 23:13:00;;;;;;;59.53;37.50;;;;;;;;;;10237808;28;20095;-60
2024/01/17 23:17:58;;;;;;;48.15;31.15;;;;;;;;;;10242865;28;20083;-60
2024/01/17 23:22:57;;;;;;;84.65;57.70;;;;;;;;;;10236023;28;20464;-61
2024/01/17 23:27:55;;;;;;;55.85;38.72;;;;;;;;;;10237638;28;20092;-60
2024/01/17 23:32:55;;;;;;;42.85;29.25;;;;;;;;;;10228605;28;20147;-61
2024/01/17 23:37:53;;;;;;;58.60;44.53;;;;;;;;;;10236648;28;20073;-61
2024/01/17 23:42:51;;;;;;;44.25;31.40;;;;;;;;;;10232932;28;20073;-61
2024/01/17 23:47:50;;;;;;;87.82;61.30;;;;;;;;;;10235558;28;20089;-61
2024/01/17 23:52:49;;;;;;;73.07;48.85;;;;;;;;;;10236502;28;20068;-62
2024/01/17 23:57:47;;;;;;;44.83;31.83;;;;;;;;;;10239389;28;20856;-61
